Impacts METAR Board
IDs:

KSTL - St Louis/Lambert Int, MO, US

Updated at: 1100 UTC 30 Oct 2020
Potential Impact None Slight Moderate High
Time 29/23Z 30/00Z 30/01Z 30/02Z 30/03Z 30/04Z 30/05Z 30/06Z 30/07Z 30/08Z 30/09Z 30/10Z 30/11Z
Temp46 45 44 45 44 41 37 37 36 36 34 35 34
Dewpt37 37 36 35 35 34 32 31 31 31 30 30 29
Altim30.00 30.05 30.09 30.10 30.11 30.13 30.14 30.16 30.18 30.20 30.21 30.22 30.24
VIS10 10 10 10 10 10 10 10 10 10 10 10 10
CIG26 24 30 41 42 -- -- -- -- -- -- -- --
CoverOVCOVCOVCOVCBKNSCTFEWCLRCLRCLRCLRCLRCLR
FltCatMVFRMVFRMVFRVFRVFRVFRVFRVFRVFRVFRVFRVFRVFR
WX--------------------------
WDir320310300310310290290300290300290290280
WSpd11 10 9 8 7 4 5 4 7 7 6 6 5
WGst-- -- -- -- -- -- -- -- -- -- -- -- --
Raw hourly METARs
KSTL 292251Z 32011KT 10SM OVC026 08/03 A3000 RMK AO2 SLP163 T00780028
KSTL 292351Z 31010KT 10SM OVC024 07/03 A3005 RMK AO2 SLP177 60002 T00720028 10094 20061 52041
KSTL 300051Z 30009KT 10SM OVC030 07/02 A3009 RMK AO2 SLP192 T00670022
KSTL 300151Z 31008KT 10SM OVC041 07/02 A3010 RMK AO2 SLP196 T00720017
KSTL 300251Z 31007KT 10SM BKN042 07/02 A3011 RMK AO2 SLP201 T00670017 51022
KSTL 300351Z 29004KT 10SM SCT042 05/01 A3013 RMK AO2 SLP209 T00500011
KSTL 300451Z 29005KT 10SM FEW042 03/00 A3014 RMK AO2 SLP214 T00280000
KSTL 300551Z 30004KT 10SM CLR 03/M01 A3016 RMK AO2 SLP218 T00281006 10072 20028 400940028 51015
KSTL 300651Z 29007KT 10SM CLR 02/M01 A3018 RMK AO2 SLP227 T00221006
KSTL 300751Z 30007KT 10SM CLR 02/M01 A3020 RMK AO2 SLP230 T00221006
KSTL 300851Z 29006KT 10SM CLR 01/M01 A3021 RMK AO2 SLP235 T00111011 51017
KSTL 300951Z 29006KT 10SM CLR 02/M01 A3022 RMK AO2 SLP239 T00171011
KSTL 301051Z 28005KT 10SM CLR 01/M02 A3024 RMK AO2 SLP246 T00111017



Page loaded:  11:16 UTC  |   04:16 AM Pacific  |   05:16 AM Mountain  |   06:16 AM Central  |   07:16 AM Eastern

 

ADVISORIES

FORECASTS

FORECASTS

OBSERVATIONS

USER TOOLS

ABOUT US